Fort Scott, Kansas
Current Conditions -  °F | °C
As of 6:35 PM on Friday 24 Oct 2014 (Local Time) from KPTS Reporting Station
Clear Clear  
Wind Chill: 71°   Ceiling: Unl
Heat Index: 71°   Visibility: 10mi
Dew Point: 64°   Wind: 7mph
Humidity: 78%   Direction: 210°SSW
Pressure: 30.02"   Gusts: NA
Location:  37.84°N, 94.7°W
Report Text: KPTS 242335Z AUTO 21006KT 10SM CLR 22/18 A3002 RMK AO2 T02170177
Loading
Personal Weather Stations






























Interactive Weather Map
Tropical Storm Tracking
New forecast layout! Learn more

10-Day Weather Forecast

Advertisements
Track Severe Weather on mobile